Aurora, Minnesota
Current Conditions -  °F | °C
As of 9:51 PM on Tuesday 25 Nov 2014 (Local Time) from KEVM Reporting Station
Overcast Overcast  
Wind Chill: 19°   Ceiling: 2000
Heat Index: 19°   Visibility: 10mi
Dew Point:   Wind: 0mph
Humidity: 63%   Direction: NA
Pressure: 30.03"   Gusts: NA
Location:  47.53°N, 92.24°W
Report Text: KEVM 260351Z AUTO 00000KT 10SM OVC020 M07/M13 A3003 RMK AO2
Loading
Personal Weather Stations






























Interactive Weather Map New forecast layout! Learn more

10-Day Weather Forecast

Advertisements
Track Severe Weather on mobile